N25CB LWSK-LGAV
Flight info
| Callsign | N25CB |
|---|---|
| Flight time | N/A |
| Altitude | 19000 |
| Route | PEP T217 TALAS/N0481F230 N130 TSL L617 SKP M749 ROPOX |
| Aircraft | C750/M-SBDE3FGHRWXY/S |
Departure
| Time | 2026-04-25 01:38 |
|---|---|
| Airport | Skopje International Airport (LWSK) |
Arrival
| Time | N/A |
|---|---|
| Airport | Athens Eleftherios Venizelos International Airport (LGAV) |
| Time | Latitude | Longitude | Altitude | Speed | Heading |
|---|---|---|---|---|---|
| 2026-04-25 01:21 | 41.95699 | 21.62706 | 768 ft | 0 kts | 73° |
| 2026-04-25 01:32 | 41.95697 | 21.62701 | 768 ft | 2 kts | 73° |
| 2026-04-25 01:32 | 41.95693 | 21.62682 | 767 ft | 2 kts | 73° |
| 2026-04-25 01:32 | 41.95689 | 21.62663 | 767 ft | 2 kts | 73° |
| 2026-04-25 01:32 | 41.95684 | 21.62643 | 766 ft | 2 kts | 73° |
| 2026-04-25 01:33 | 41.95680 | 21.62624 | 766 ft | 2 kts | 73° |
| 2026-04-25 01:33 | 41.95678 | 21.62605 | 765 ft | 2 kts | 105° |
| 2026-04-25 01:33 | 41.95686 | 21.62589 | 765 ft | 2 kts | 146° |
| 2026-04-25 01:33 | 41.95695 | 21.62585 | 765 ft | 0 kts | 164° |
| 2026-04-25 01:35 | 41.95694 | 21.62585 | 765 ft | 0 kts | 164° |
| 2026-04-25 01:35 | 41.95678 | 21.62588 | 765 ft | 4 kts | 177° |
| 2026-04-25 01:36 | 41.95622 | 21.62604 | 764 ft | 12 kts | 166° |
| 2026-04-25 01:36 | 41.95521 | 21.62640 | 763 ft | 9 kts | 165° |
| 2026-04-25 01:36 | 41.95430 | 21.62616 | 760 ft | 17 kts | 204° |
| 2026-04-25 01:36 | 41.95300 | 21.62535 | 757 ft | 19 kts | 232° |
| 2026-04-25 01:37 | 41.95306 | 21.62441 | 755 ft | 10 kts | 340° |
| 2026-04-25 01:37 | 41.95322 | 21.62436 | 754 ft | 0 kts | 349° |
| 2026-04-25 01:37 | 41.95330 | 21.62434 | 754 ft | 5 kts | 349° |
| 2026-04-25 01:38 | 41.95613 | 21.62336 | 758 ft | 86 kts | 345° |
| 2026-04-25 01:38 | 41.96469 | 21.62040 | 859 ft | 153 kts | 346° |
| 2026-04-25 01:38 | 41.97522 | 21.61653 | 1422 ft | 164 kts | 346° |
| 2026-04-25 01:38 | 41.98673 | 21.61286 | 1983 ft | 180 kts | 347° |
| 2026-04-25 01:39 | 41.99911 | 21.60854 | 2770 ft | 194 kts | 346° |
| 2026-04-25 01:39 | 42.01259 | 21.60715 | 3652 ft | 203 kts | 16° |
| 2026-04-25 01:39 | 42.02362 | 21.61911 | 4412 ft | 220 kts | 60° |
| 2026-04-25 01:39 | 42.02579 | 21.63979 | 5148 ft | 240 kts | 100° |
| 2026-04-25 01:40 | 42.01702 | 21.65941 | 5854 ft | 260 kts | 137° |
| 2026-04-25 01:40 | 42.00010 | 21.66848 | 6841 ft | 277 kts | 176° |
| 2026-04-25 01:40 | 41.98148 | 21.66331 | 8081 ft | 279 kts | 200° |
| 2026-04-25 01:40 | 41.96289 | 21.65717 | 9216 ft | 284 kts | 191° |
| 2026-04-25 01:41 | 41.94349 | 21.65253 | 10329 ft | 289 kts | 189° |
| 2026-04-25 01:41 | 41.92363 | 21.64838 | 11368 ft | 294 kts | 188° |
| 2026-04-25 01:41 | 41.90339 | 21.64441 | 12371 ft | 299 kts | 187° |
| 2026-04-25 01:41 | 41.88262 | 21.64499 | 13214 ft | 305 kts | 165° |
| 2026-04-25 01:42 | 41.86176 | 21.65291 | 13852 ft | 320 kts | 162° |
| 2026-04-25 01:42 | 41.83983 | 21.66089 | 14402 ft | 336 kts | 162° |
| 2026-04-25 01:42 | 41.81687 | 21.66924 | 15007 ft | 351 kts | 162° |
| 2026-04-25 01:42 | 41.79327 | 21.67775 | 16030 ft | 356 kts | 162° |
| 2026-04-25 01:43 | 41.76945 | 21.68632 | 17113 ft | 357 kts | 162° |
| 2026-04-25 01:43 | 41.74574 | 21.69488 | 18057 ft | 361 kts | 162° |
| 2026-04-25 01:43 | 41.72127 | 21.70370 | 18976 ft | 366 kts | 162° |
| 2026-04-25 01:43 | 41.69683 | 21.71252 | 19847 ft | 370 kts | 162° |
| 2026-04-25 01:44 | 41.67195 | 21.72144 | 20694 ft | 375 kts | 163° |
| 2026-04-25 01:44 | 41.64569 | 21.72398 | 21425 ft | 389 kts | 186° |
| 2026-04-25 01:44 | 41.61990 | 21.71176 | 22217 ft | 398 kts | 210° |
| 2026-04-25 01:44 | 41.59824 | 21.68903 | 22984 ft | 403 kts | 218° |
| 2026-04-25 01:45 | 41.57525 | 21.66754 | 23703 ft | 408 kts | 214° |
| 2026-04-25 01:45 | 41.55172 | 21.64557 | 24432 ft | 413 kts | 214° |
| 2026-04-25 01:45 | 41.52801 | 21.62370 | 25148 ft | 418 kts | 214° |
| 2026-04-25 01:45 | 41.50414 | 21.60168 | 25867 ft | 422 kts | 214° |
| 2026-04-25 01:46 | 41.47998 | 21.57940 | 26525 ft | 426 kts | 214° |
| 2026-04-25 01:46 | 41.45545 | 21.55681 | 27191 ft | 431 kts | 214° |
| 2026-04-25 01:46 | 41.43079 | 21.53413 | 27872 ft | 434 kts | 214° |
| 2026-04-25 01:46 | 41.40587 | 21.51124 | 28524 ft | 438 kts | 214° |
| 2026-04-25 01:47 | 41.37882 | 21.49280 | 29059 ft | 439 kts | 195° |
| 2026-04-25 01:47 | 41.34851 | 21.48886 | 29640 ft | 435 kts | 172° |
| 2026-04-25 01:47 | 41.31966 | 21.49956 | 30046 ft | 434 kts | 151° |
| 2026-04-25 01:47 | 41.29545 | 21.52293 | 30076 ft | 435 kts | 129° |
| 2026-04-25 01:48 | 41.25937 | 21.58917 | 30077 ft | 455 kts | 122° |
| 2026-04-25 01:48 | 41.22181 | 21.65710 | 30059 ft | 459 kts | 123° |
| 2026-04-25 01:49 | 41.18407 | 21.72481 | 30062 ft | 455 kts | 123° |
| 2026-04-25 01:49 | 41.14648 | 21.79207 | 30061 ft | 451 kts | 123° |
| 2026-04-25 01:50 | 41.10938 | 21.85827 | 30056 ft | 448 kts | 123° |
| 2026-04-25 01:50 | 41.07222 | 21.92370 | 30043 ft | 448 kts | 127° |
| 2026-04-25 01:51 | 41.03497 | 21.98916 | 30052 ft | 445 kts | 122° |
| 2026-04-25 01:51 | 40.99812 | 22.05474 | 30059 ft | 449 kts | 123° |
| 2026-04-25 01:52 | 40.96024 | 22.12122 | 30052 ft | 453 kts | 123° |
| 2026-04-25 01:52 | 40.92240 | 22.18747 | 30054 ft | 456 kts | 123° |
| 2026-04-25 01:53 | 40.88395 | 22.25459 | 30048 ft | 458 kts | 123° |
| 2026-04-25 01:53 | 40.84551 | 22.32153 | 30048 ft | 459 kts | 123° |
| 2026-04-25 01:54 | 40.80702 | 22.38847 | 30043 ft | 460 kts | 123° |
| 2026-04-25 01:54 | 40.76831 | 22.45561 | 30044 ft | 461 kts | 123° |
| 2026-04-25 01:55 | 40.72990 | 22.52211 | 30039 ft | 461 kts | 123° |
| 2026-04-25 01:55 | 40.69072 | 22.58987 | 30039 ft | 462 kts | 123° |
| 2026-04-25 01:56 | 40.65190 | 22.65675 | 30035 ft | 462 kts | 124° |
| 2026-04-25 01:56 | 40.61278 | 22.72405 | 30040 ft | 462 kts | 123° |
| 2026-04-25 01:57 | 40.55416 | 22.82465 | 30039 ft | 462 kts | 123° |
| 2026-04-25 01:58 | 40.51517 | 22.89135 | 30038 ft | 463 kts | 123° |
| 2026-04-25 01:58 | 40.47589 | 22.95842 | 30034 ft | 463 kts | 124° |
| 2026-04-25 01:58 | 40.45376 | 22.98846 | 29995 ft | 471 kts | 140° |
| 2026-04-25 01:59 | 40.42409 | 23.00816 | 30041 ft | 479 kts | 156° |
| 2026-04-25 01:59 | 40.36167 | 23.03853 | 30028 ft | 479 kts | 155° |
| 2026-04-25 02:00 | 40.29960 | 23.06934 | 30022 ft | 479 kts | 155° |
| 2026-04-25 02:00 | 40.23737 | 23.10021 | 30026 ft | 478 kts | 155° |
| 2026-04-25 02:01 | 40.17536 | 23.13096 | 30024 ft | 478 kts | 155° |